Time;durP1;ratioP1;P1;durP2;ratioP2;P2;SDS_P1;SDS_P2;PMS_P1;PMS_P2;Temp;Humidity;BMP_temperature;BMP_pressure;BME280_temperature;BME280_humidity;BME280_pressure;Samples;Min_cycle;Max_cycle;Signal;HPM_P1;HPM_P2
2023/04/03 00:00:18;;;;;;;;;;;5.90;96.60;;;;;;5090565;28;20361;-66
2023/04/03 00:02:44;;;;;;;;;;;5.90;96.50;;;;;;5090300;28;19912;-66
2023/04/03 00:05:10;;;;;;;;;;;5.90;96.50;;;;;;5090434;28;19916;-66
2023/04/03 00:07:35;;;;;;;;;;;5.90;96.50;;;;;;5106888;28;19915;-65
2023/04/03 00:10:01;;;;;;;;;;;5.90;96.50;;;;;;5111210;28;19965;-66
2023/04/03 00:12:26;;;;;;;;;;;5.90;96.40;;;;;;5105105;28;19912;-65
2023/04/03 00:14:52;;;;;;;;;;;5.90;96.50;;;;;;5110394;28;19916;-66
2023/04/03 00:17:17;;;;;;;;;;;5.90;96.50;;;;;;5110777;28;19969;-65
2023/04/03 00:19:43;;;;;;;;;;;5.80;96.50;;;;;;5110423;28;20344;-66
2023/04/03 00:22:08;;;;;;;;;;;5.80;96.40;;;;;;5110278;28;19912;-65
2023/04/03 00:24:34;;;;;;;;;;;5.80;96.40;;;;;;5110285;28;19976;-65
2023/04/03 00:26:59;;;;;;;;;;;5.80;96.40;;;;;;5110541;28;19928;-66
2023/04/03 00:29:25;;;;;;;;;;;5.80;96.40;;;;;;5110312;28;19907;-65
2023/04/03 00:31:50;;;;;;;;;;;5.80;96.40;;;;;;5110292;28;19912;-65
2023/04/03 00:34:16;;;;;;;;;;;5.70;96.30;;;;;;5108918;28;19916;-66
2023/04/03 00:36:41;;;;;;;;;;;5.70;96.30;;;;;;5110609;28;19972;-65
2023/04/03 00:39:07;;;;;;;;;;;5.70;96.30;;;;;;5109994;28;19908;-66
2023/04/03 00:41:32;;;;;;;;;;;5.70;96.30;;;;;;5110137;28;20415;-66
2023/04/03 00:43:58;;;;;;;;;;;5.70;96.30;;;;;;5108249;28;19918;-66
2023/04/03 00:46:23;;;;;;;;;;;5.60;96.30;;;;;;5109856;28;19915;-66
2023/04/03 00:48:49;;;;;;;;;;;5.60;96.30;;;;;;5109165;28;19919;-66
2023/04/03 00:51:23;;;;;;;;;;;5.60;96.30;;;;;;5109448;28;19907;-66
2023/04/03 00:53:56;;;;;;;;;;;5.60;96.30;;;;;;5092842;28;20716;-66
2023/04/03 00:56:24;;;;;;;;;;;5.60;96.30;;;;;;5088933;28;19912;-66
2023/04/03 00:58:55;;;;;;;;;;;5.60;96.30;;;;;;5099843;28;19988;-65
2023/04/03 01:01:22;;;;;;;;;;;5.60;96.20;;;;;;5108143;28;19914;-65
2023/04/03 01:03:48;;;;;;;;;;;5.60;96.20;;;;;;5109271;28;19922;-65
2023/04/03 01:06:16;;;;;;;;;;;5.50;96.20;;;;;;5108268;28;19911;-65
2023/04/03 01:08:41;;;;;;;;;;;5.50;96.20;;;;;;5109523;28;19911;-65
2023/04/03 01:11:07;;;;;;;;;;;5.50;96.20;;;;;;5109002;28;20443;-65
2023/04/03 01:13:32;;;;;;;;;;;5.50;96.10;;;;;;5106451;28;19916;-66
2023/04/03 01:16:03;;;;;;;;;;;5.50;96.20;;;;;;5108404;28;20376;-66
2023/04/03 01:18:28;;;;;;;;;;;5.40;96.10;;;;;;5108506;28;19919;-65
2023/04/03 01:21:06;;;;;;;;;;;5.40;96.10;;;;;;5108039;28;19919;-65
2023/04/03 01:23:49;;;;;;;;;;;5.40;96.10;;;;;;5108716;28;19912;-65
2023/04/03 01:26:15;;;;;;;;;;;5.40;96.10;;;;;;5109004;28;19937;-65
2023/04/03 01:28:40;;;;;;;;;;;5.40;96.10;;;;;;5108933;28;20431;-65
2023/04/03 01:31:18;;;;;;;;;;;5.40;96.10;;;;;;5109213;28;20264;-65
2023/04/03 01:33:44;;;;;;;;;;;5.30;96.10;;;;;;5106973;28;19912;-66
2023/04/03 01:36:10;;;;;;;;;;;5.30;96.10;;;;;;5108952;28;19915;-65
2023/04/03 01:38:35;;;;;;;;;;;5.30;96.10;;;;;;5108864;28;19908;-66
2023/04/03 01:41:01;;;;;;;;;;;5.30;96.00;;;;;;5109317;28;20391;-65
2023/04/03 01:43:26;;;;;;;;;;;5.30;96.00;;;;;;5108620;28;19908;-65
2023/04/03 01:45:54;;;;;;;;;;;5.30;96.00;;;;;;5108703;28;19988;-65
2023/04/03 01:48:20;;;;;;;;;;;5.30;96.00;;;;;;5108512;28;20453;-65
2023/04/03 01:50:45;;;;;;;;;;;5.30;96.00;;;;;;5109171;28;19908;-66
2023/04/03 01:53:11;;;;;;;;;;;5.20;96.00;;;;;;5097476;28;19916;-65
2023/04/03 01:55:37;;;;;;;;;;;5.30;96.00;;;;;;5088664;28;20018;-65
2023/04/03 01:58:02;;;;;;;;;;;5.30;96.00;;;;;;5086974;28;19912;-65
2023/04/03 02:00:28;;;;;;;;;;;5.20;96.00;;;;;;5088451;28;19919;-65
2023/04/03 02:02:53;;;;;;;;;;;5.20;96.00;;;;;;5086484;28;20342;-65
2023/04/03 02:05:19;;;;;;;;;;;5.20;96.00;;;;;;5088147;28;19916;-65
2023/04/03 02:07:45;;;;;;;;;;;5.20;96.00;;;;;;5088219;28;19908;-65
2023/04/03 02:10:11;;;;;;;;;;;5.20;96.10;;;;;;5096917;28;19914;-65
2023/04/03 02:12:36;;;;;;;;;;;5.20;96.00;;;;;;5103291;28;19915;-65
2023/04/03 02:15:02;;;;;;;;;;;5.20;96.10;;;;;;5108171;28;19915;-65
2023/04/03 02:17:27;;;;;;;;;;;5.20;96.10;;;;;;5108769;28;19918;-66
2023/04/03 02:19:53;;;;;;;;;;;5.20;96.00;;;;;;5108247;28;19919;-65
2023/04/03 02:22:19;;;;;;;;;;;5.10;96.00;;;;;;5108100;28;19934;-65
2023/04/03 02:24:45;;;;;;;;;;;5.10;96.00;;;;;;5107876;28;19911;-65
2023/04/03 02:27:11;;;;;;;;;;;5.10;96.10;;;;;;5108229;28;19981;-65
2023/04/03 02:29:36;;;;;;;;;;;5.10;96.10;;;;;;5108551;28;19912;-65
2023/04/03 02:32:02;;;;;;;;;;;5.10;96.10;;;;;;5107875;28;19912;-65
2023/04/03 02:34:27;;;;;;;;;;;5.10;96.10;;;;;;5108137;28;19915;-65
2023/04/03 02:36:53;;;;;;;;;;;5.10;96.00;;;;;;5108127;28;19912;-66
2023/04/03 02:39:18;;;;;;;;;;;5.00;96.10;;;;;;5108042;28;19911;-65
2023/04/03 02:41:44;;;;;;;;;;;5.00;96.10;;;;;;5108051;28;19911;-65
2023/04/03 02:44:10;;;;;;;;;;;5.00;96.00;;;;;;5107959;28;19911;-66
2023/04/03 02:46:36;;;;;;;;;;;5.00;96.00;;;;;;5107913;28;19919;-65
2023/04/03 02:49:02;;;;;;;;;;;5.00;96.00;;;;;;5107915;28;19916;-66
2023/04/03 02:51:27;;;;;;;;;;;5.00;96.00;;;;;;5107743;28;19916;-65
2023/04/03 02:53:53;;;;;;;;;;;5.00;96.00;;;;;;5105197;28;19916;-65
2023/04/03 02:56:19;;;;;;;;;;;4.90;96.30;;;;;;5107612;28;19920;-68
2023/04/03 02:58:44;;;;;;;;;;;4.90;96.10;;;;;;5111257;28;19939;-66
2023/04/03 03:01:10;;;;;;;;;;;4.90;96.10;;;;;;5111171;28;20335;-65
2023/04/03 03:03:36;;;;;;;;;;;5.00;96.10;;;;;;5110949;28;20380;-66
2023/04/03 03:06:02;;;;;;;;;;;4.90;96.10;;;;;;5111424;28;20368;-65
2023/04/03 03:08:28;;;;;;;;;;;4.90;96.10;;;;;;5111253;28;19912;-66
2023/04/03 03:10:53;;;;;;;;;;;4.90;96.10;;;;;;5111318;28;19912;-66
2023/04/03 03:13:19;;;;;;;;;;;4.90;96.00;;;;;;5110057;28;19912;-65
2023/04/03 03:15:44;;;;;;;;;;;4.90;96.00;;;;;;5109734;28;19953;-66
2023/04/03 03:18:10;;;;;;;;;;;4.90;96.00;;;;;;5111463;28;19982;-66
2023/04/03 03:20:35;;;;;;;;;;;4.80;96.00;;;;;;5100869;27;19923;-66
2023/04/03 03:23:01;;;;;;;;;;;4.80;96.00;;;;;;5107481;27;20310;-65
2023/04/03 03:25:26;;;;;;;;;;;4.90;96.00;;;;;;5121013;27;20006;-66
2023/04/03 03:27:52;;;;;;;;;;;4.80;96.10;;;;;;5131672;27;19922;-65
2023/04/03 03:30:17;;;;;;;;;;;4.80;96.10;;;;;;5115484;27;19920;-66
2023/04/03 03:32:43;;;;;;;;;;;4.80;96.10;;;;;;5110534;28;20360;-66
2023/04/03 03:35:08;;;;;;;;;;;4.80;96.00;;;;;;5110527;28;19915;-65
2023/04/03 03:37:34;;;;;;;;;;;4.80;96.00;;;;;;5110751;27;19915;-65
2023/04/03 03:40:00;;;;;;;;;;;4.80;96.00;;;;;;5110784;28;19908;-65
2023/04/03 03:42:25;;;;;;;;;;;4.80;96.00;;;;;;5110632;28;19915;-65
2023/04/03 03:44:51;;;;;;;;;;;4.70;96.00;;;;;;5110891;28;19922;-65
2023/04/03 03:47:17;;;;;;;;;;;4.70;96.00;;;;;;5110959;28;19916;-66
2023/04/03 03:49:42;;;;;;;;;;;4.70;96.00;;;;;;5110882;28;19908;-65
2023/04/03 03:52:10;;;;;;;;;;;4.70;96.00;;;;;;5107341;28;19916;-65
2023/04/03 03:54:36;;;;;;;;;;;4.70;96.00;;;;;;5090698;28;19963;-66
2023/04/03 03:57:02;;;;;;;;;;;4.70;95.90;;;;;;5090469;28;19919;-65
2023/04/03 03:59:27;;;;;;;;;;;4.70;95.90;;;;;;5090588;28;19916;-65
2023/04/03 04:01:53;;;;;;;;;;;4.70;95.90;;;;;;5103153;28;19912;-66
2023/04/03 04:04:18;;;;;;;;;;;4.60;95.90;;;;;;5109943;28;20380;-65
2023/04/03 04:06:44;;;;;;;;;;;4.70;96.00;;;;;;5110728;28;19922;-66
2023/04/03 04:09:10;;;;;;;;;;;4.60;95.90;;;;;;5108801;28;19908;-65
2023/04/03 04:11:35;;;;;;;;;;;4.70;95.90;;;;;;5110422;28;19907;-65
2023/04/03 04:14:01;;;;;;;;;;;4.60;95.90;;;;;;5109428;28;19982;-65
2023/04/03 04:16:26;;;;;;;;;;;4.60;95.90;;;;;;5110197;28;19919;-66
2023/04/03 04:18:52;;;;;;;;;;;4.60;95.90;;;;;;5110216;28;19908;-65
2023/04/03 04:21:17;;;;;;;;;;;4.60;95.90;;;;;;5110293;28;20661;-66
2023/04/03 04:23:43;;;;;;;;;;;4.60;95.90;;;;;;5094380;28;19912;-66
2023/04/03 04:26:08;;;;;;;;;;;4.60;95.80;;;;;;5089718;28;19912;-66
2023/04/03 04:28:34;;;;;;;;;;;4.60;95.80;;;;;;5089727;28;19995;-66
2023/04/03 04:30:59;;;;;;;;;;;4.50;95.90;;;;;;5122415;27;19919;-65
2023/04/03 04:33:25;;;;;;;;;;;4.50;95.90;;;;;;5089174;28;19965;-65
2023/04/03 04:35:51;;;;;;;;;;;4.50;95.90;;;;;;5089585;28;19912;-66
2023/04/03 04:38:17;;;;;;;;;;;4.50;95.80;;;;;;5089271;28;19912;-66
2023/04/03 04:40:42;;;;;;;;;;;4.60;95.90;;;;;;5097688;28;19912;-65
2023/04/03 04:43:08;;;;;;;;;;;4.50;95.80;;;;;;5109416;28;19923;-66
2023/04/03 04:45:33;;;;;;;;;;;4.50;96.10;;;;;;5109798;28;20348;-66
2023/04/03 04:47:59;;;;;;;;;;;4.50;95.80;;;;;;5109686;28;20516;-66
2023/04/03 04:50:24;;;;;;;;;;;4.50;95.80;;;;;;5109537;28;19912;-65
2023/04/03 04:52:50;;;;;;;;;;;4.50;95.80;;;;;;5101298;28;19965;-65
2023/04/03 04:55:15;;;;;;;;;;;4.50;95.80;;;;;;5089164;28;19908;-65
2023/04/03 04:57:41;;;;;;;;;;;4.50;95.80;;;;;;5089194;28;19916;-65
2023/04/03 05:00:07;;;;;;;;;;;4.50;95.80;;;;;;5089473;28;20323;-66
2023/04/03 05:02:32;;;;;;;;;;;4.50;95.80;;;;;;5088834;28;19918;-66
2023/04/03 05:04:58;;;;;;;;;;;4.50;95.80;;;;;;5104107;28;20496;-66
2023/04/03 05:07:24;;;;;;;;;;;4.40;95.80;;;;;;5109365;28;20261;-65
2023/04/03 05:09:49;;;;;;;;;;;4.50;95.80;;;;;;5108965;28;20750;-66
2023/04/03 05:12:15;;;;;;;;;;;4.40;96.00;;;;;;5103974;28;19989;-65
2023/04/03 05:14:41;;;;;;;;;;;4.40;95.70;;;;;;5108719;28;20380;-66
2023/04/03 05:17:06;;;;;;;;;;;4.40;95.80;;;;;;5107845;28;19915;-65
2023/04/03 05:19:32;;;;;;;;;;;4.40;95.70;;;;;;5108455;28;20693;-65
2023/04/03 05:21:57;;;;;;;;;;;4.40;95.80;;;;;;5108591;28;19912;-66
2023/04/03 05:24:23;;;;;;;;;;;4.40;95.70;;;;;;5088160;28;19916;-65
2023/04/03 05:26:48;;;;;;;;;;;4.40;95.70;;;;;;5088317;28;19912;-65
2023/04/03 05:29:14;;;;;;;;;;;4.40;95.80;;;;;;5088516;28;20633;-65
2023/04/03 05:31:39;;;;;;;;;;;4.40;95.80;;;;;;5087975;28;20297;-66
2023/04/03 05:34:05;;;;;;;;;;;4.40;95.70;;;;;;5087845;28;20345;-65
2023/04/03 05:36:31;;;;;;;;;;;4.40;95.70;;;;;;5088683;28;19908;-65
2023/04/03 05:38:56;;;;;;;;;;;4.30;95.70;;;;;;5088369;28;20234;-65
2023/04/03 05:41:22;;;;;;;;;;;4.40;95.70;;;;;;5107454;28;20254;-66
2023/04/03 05:43:47;;;;;;;;;;;4.30;95.70;;;;;;5108257;28;19981;-66
2023/04/03 05:46:15;;;;;;;;;;;4.40;95.70;;;;;;5108582;28;19922;-65
2023/04/03 05:48:40;;;;;;;;;;;4.30;95.70;;;;;;5108462;28;19908;-65
2023/04/03 05:51:06;;;;;;;;;;;4.40;95.70;;;;;;5108497;28;20321;-65
2023/04/03 05:53:35;;;;;;;;;;;4.30;95.70;;;;;;5107421;28;19916;-65
2023/04/03 05:56:00;;;;;;;;;;;4.40;95.80;;;;;;5108327;28;19907;-66
2023/04/03 05:58:26;;;;;;;;;;;4.30;95.70;;;;;;5108291;27;19934;-65
2023/04/03 06:00:51;;;;;;;;;;;4.30;95.80;;;;;;5108705;28;19955;-66
2023/04/03 06:03:17;;;;;;;;;;;4.30;95.90;;;;;;5089728;28;20357;-67
2023/04/03 06:05:43;;;;;;;;;;;4.40;95.70;;;;;;5108307;28;19976;-65
2023/04/03 06:08:08;;;;;;;;;;;4.40;95.70;;;;;;5108064;28;20319;-66
2023/04/03 06:10:34;;;;;;;;;;;4.40;95.70;;;;;;5106570;28;19999;-67
2023/04/03 06:13:00;;;;;;;;;;;4.40;95.70;;;;;;5107165;28;20364;-65
2023/04/03 06:15:25;;;;;;;;;;;4.40;95.70;;;;;;5107770;28;19915;-65
2023/04/03 06:17:51;;;;;;;;;;;4.40;95.70;;;;;;5107855;28;19915;-65
2023/04/03 06:20:16;;;;;;;;;;;4.40;95.70;;;;;;5096254;28;19977;-65
2023/04/03 06:22:42;;;;;;;;;;;4.40;95.70;;;;;;5107764;27;20407;-65
2023/04/03 06:25:09;;;;;;;;;;;4.40;95.70;;;;;;5107192;28;19920;-66
2023/04/03 06:27:34;;;;;;;;;;;4.40;95.70;;;;;;5106652;28;19939;-65
2023/04/03 06:30:00;;;;;;;;;;;4.40;95.70;;;;;;5107251;28;19961;-65
2023/04/03 06:32:26;;;;;;;;;;;4.40;95.70;;;;;;5108920;28;19981;-66
2023/04/03 06:34:53;;;;;;;;;;;4.40;95.70;;;;;;5110546;28;19916;-65
2023/04/03 06:37:19;;;;;;;;;;;4.50;95.70;;;;;;5109100;28;19916;-65
2023/04/03 06:39:45;;;;;;;;;;;4.50;95.60;;;;;;5111820;28;19958;-65
2023/04/03 06:42:10;;;;;;;;;;;4.50;95.60;;;;;;5111592;27;20321;-65
2023/04/03 06:44:36;;;;;;;;;;;4.40;95.70;;;;;;5111668;28;19924;-66
2023/04/03 06:47:02;;;;;;;;;;;4.40;95.70;;;;;;5112105;28;19912;-65
2023/04/03 06:49:28;;;;;;;;;;;4.50;95.80;;;;;;5110412;28;20500;-65
2023/04/03 06:51:54;;;;;;;;;;;4.50;95.80;;;;;;5111602;28;19977;-65
2023/04/03 06:54:20;;;;;;;;;;;4.50;95.70;;;;;;5091368;28;19908;-66
2023/04/03 06:56:45;;;;;;;;;;;4.50;95.70;;;;;;5091606;28;19969;-65
2023/04/03 06:59:13;;;;;;;;;;;4.50;95.70;;;;;;5090032;28;19916;-66
2023/04/03 07:01:39;;;;;;;;;;;4.50;95.70;;;;;;5091127;28;19961;-65
2023/04/03 07:04:05;;;;;;;;;;;4.50;95.70;;;;;;5091274;28;19912;-65
2023/04/03 07:06:32;;;;;;;;;;;4.60;95.60;;;;;;5096576;28;19928;-65
2023/04/03 07:08:57;;;;;;;;;;;4.60;95.60;;;;;;5110134;28;20551;-66
2023/04/03 07:11:23;;;;;;;;;;;4.70;95.50;;;;;;5112168;28;19919;-65
2023/04/03 07:13:48;;;;;;;;;;;4.70;95.40;;;;;;5109200;28;19916;-65
2023/04/03 07:16:14;;;;;;;;;;;4.70;95.40;;;;;;5111736;28;19914;-65
2023/04/03 07:18:39;;;;;;;;;;;4.80;95.40;;;;;;5111353;28;19912;-65
2023/04/03 07:21:05;;;;;;;;;;;4.80;95.30;;;;;;5111598;28;20306;-65
2023/04/03 07:23:31;;;;;;;;;;;4.90;95.30;;;;;;5097385;28;19951;-65
2023/04/03 07:25:57;;;;;;;;;;;4.90;95.20;;;;;;5091058;28;19922;-66
2023/04/03 07:28:22;;;;;;;;;;;4.90;95.20;;;;;;5096337;28;20603;-65
2023/04/03 07:30:51;;;;;;;;;;;4.90;95.20;;;;;;5111347;28;19927;-65
2023/04/03 07:33:18;;;;;;;;;;;5.00;95.20;;;;;;5110857;28;19912;-65
2023/04/03 07:35:44;;;;;;;;;;;5.10;95.20;;;;;;5111003;28;20384;-66
2023/04/03 07:38:10;;;;;;;;;;;5.10;95.20;;;;;;5109979;28;19954;-65
2023/04/03 07:40:36;;;;;;;;;;;5.10;95.20;;;;;;5110270;28;19935;-66
2023/04/03 07:43:02;;;;;;;;;;;5.20;95.20;;;;;;5109267;28;20012;-65
2023/04/03 07:45:28;;;;;;;;;;;5.20;95.20;;;;;;5110136;28;19989;-65
2023/04/03 07:47:53;;;;;;;;;;;5.20;95.20;;;;;;5110862;28;20743;-65
2023/04/03 07:50:19;;;;;;;;;;;5.30;95.10;;;;;;5110745;28;19934;-65
2023/04/03 07:52:45;;;;;;;;;;;5.30;95.10;;;;;;5102754;28;20007;-65
2023/04/03 07:55:11;;;;;;;;;;;5.40;95.00;;;;;;5089495;28;20007;-66
2023/04/03 07:57:37;;;;;;;;;;;5.50;95.00;;;;;;5089583;28;19995;-65
2023/04/03 08:00:06;;;;;;;;;;;5.50;95.00;;;;;;5090417;28;19947;-66
2023/04/03 08:02:34;;;;;;;;;;;5.60;95.00;;;;;;5108633;28;20014;-65
2023/04/03 08:04:59;;;;;;;;;;;5.70;94.70;;;;;;5108261;28;20033;-65
2023/04/03 08:07:25;;;;;;;;;;;5.70;94.60;;;;;;5109346;28;19995;-65
2023/04/03 08:09:50;;;;;;;;;;;5.70;94.40;;;;;;5109634;28;19942;-65
2023/04/03 08:12:16;;;;;;;;;;;5.80;94.60;;;;;;5108007;28;20384;-65
2023/04/03 08:14:41;;;;;;;;;;;5.80;94.40;;;;;;5107436;28;19919;-65
2023/04/03 08:17:11;;;;;;;;;;;5.90;94.30;;;;;;5109064;28;19907;-65
2023/04/03 08:19:40;;;;;;;;;;;6.00;94.30;;;;;;5108719;27;19920;-65
2023/04/03 08:22:06;;;;;;;;;;;6.00;94.40;;;;;;5107643;28;20054;-65
2023/04/03 08:24:32;;;;;;;;;;;6.10;94.30;;;;;;5108861;28;20791;-66
2023/04/03 08:26:57;;;;;;;;;;;6.10;94.20;;;;;;5108999;28;20515;-66
2023/04/03 08:29:23;;;;;;;;;;;6.20;94.10;;;;;;5108999;28;19918;-65
2023/04/03 08:31:50;;;;;;;;;;;6.20;94.10;;;;;;5109040;28;19938;-65
2023/04/03 08:34:16;;;;;;;;;;;6.30;94.10;;;;;;5108947;28;19953;-66
2023/04/03 08:36:42;;;;;;;;;;;6.30;94.00;;;;;;5108587;28;19916;-65
2023/04/03 08:39:07;;;;;;;;;;;6.30;94.10;;;;;;5108528;28;19912;-65
2023/04/03 08:41:36;;;;;;;;;;;6.40;94.00;;;;;;5108797;28;19931;-65
2023/04/03 08:44:02;;;;;;;;;;;6.30;93.90;;;;;;5108216;28;19980;-66
2023/04/03 08:46:46;;;;;;;;;;;6.40;93.90;;;;;;5108237;28;20424;-65
2023/04/03 08:49:21;;;;;;;;;;;6.40;93.80;;;;;;5107460;28;19923;-68
2023/04/03 08:51:48;;;;;;;;;;;6.40;93.80;;;;;;5107975;27;19920;-65
2023/04/03 08:54:43;;;;;;;;;;;6.50;93.80;;;;;;5107200;28;19908;-66
2023/04/03 08:57:10;;;;;;;;;;;6.50;93.60;;;;;;5098009;28;19998;-66
2023/04/03 08:59:38;;;;;;;;;;;6.50;93.50;;;;;;5109445;28;19912;-65
2023/04/03 09:02:13;;;;;;;;;;;6.50;93.80;;;;;;5109045;28;20027;-66
2023/04/03 09:04:39;;;;;;;;;;;6.50;93.90;;;;;;5108550;28;20391;-65
2023/04/03 09:07:13;;;;;;;;;;;6.50;93.70;;;;;;5108634;28;19914;-66
2023/04/03 09:09:41;;;;;;;;;;;6.50;93.70;;;;;;5108152;28;19918;-65
2023/04/03 09:12:15;;;;;;;;;;;6.50;93.60;;;;;;5104629;28;19916;-66
2023/04/03 09:14:50;;;;;;;;;;;6.50;93.60;;;;;;5107372;28;19924;-65
2023/04/03 09:17:21;;;;;;;;;;;6.60;93.70;;;;;;5100133;27;19937;-66
2023/04/03 09:19:46;;;;;;;;;;;6.60;93.90;;;;;;5107647;28;20057;-65
2023/04/03 09:22:12;;;;;;;;;;;6.60;93.70;;;;;;5107591;28;19990;-65
2023/04/03 09:24:38;;;;;;;;;;;6.60;93.60;;;;;;5112591;27;19916;-65
2023/04/03 09:27:05;;;;;;;;;;;6.60;93.70;;;;;;5105548;27;19922;-66
2023/04/03 09:29:39;;;;;;;;;;;6.60;93.70;;;;;;5107267;27;19918;-65
2023/04/03 09:32:17;;;;;;;;;;;6.60;93.90;;;;;;5107613;28;19908;-65
2023/04/03 09:34:43;;;;;;;;;;;6.60;94.00;;;;;;5107209;28;19915;-65
2023/04/03 09:37:09;;;;;;;;;;;6.60;93.80;;;;;;5107359;28;19911;-66
2023/04/03 09:39:51;;;;;;;;;;;6.60;93.90;;;;;;5107047;28;19911;-66
2023/04/03 09:42:19;;;;;;;;;;;6.60;93.80;;;;;;5107484;28;20355;-66
2023/04/03 09:44:52;;;;;;;;;;;6.70;93.80;;;;;;5107675;28;19915;-66
2023/04/03 09:47:22;;;;;;;;;;;6.70;94.00;;;;;;5107056;28;19927;-65
2023/04/03 09:49:48;;;;;;;;;;;6.70;93.90;;;;;;5107600;27;19916;-66
2023/04/03 09:52:24;;;;;;;;;;;6.70;93.80;;;;;;5104090;28;19919;-66
2023/04/03 09:54:49;;;;;;;;;;;6.70;93.80;;;;;;5086489;28;20345;-65
2023/04/03 09:57:15;;;;;;;;;;;6.70;93.70;;;;;;5087015;28;19955;-66
2023/04/03 09:59:43;;;;;;;;;;;6.70;93.80;;;;;;5087512;28;19939;-65
2023/04/03 10:02:23;;;;;;;;;;;6.70;93.80;;;;;;5087235;28;19913;-65
2023/04/03 10:04:49;;;;;;;;;;;6.70;93.90;;;;;;5097644;28;19924;-66
2023/04/03 10:07:26;;;;;;;;;;;6.70;94.00;;;;;;5106406;28;20088;-66
2023/04/03 10:09:59;;;;;;;;;;;6.70;93.80;;;;;;5107014;28;20089;-65
2023/04/03 10:12:25;;;;;;;;;;;6.70;93.80;;;;;;5101799;28;20321;-66
2023/04/03 10:14:50;;;;;;;;;;;6.70;93.70;;;;;;5107074;28;19918;-66
2023/04/03 10:17:16;;;;;;;;;;;6.80;93.90;;;;;;5107249;28;20404;-66
2023/04/03 10:19:42;;;;;;;;;;;6.80;93.70;;;;;;5107255;28;20022;-66
2023/04/03 10:22:19;;;;;;;;;;;6.80;93.50;;;;;;5105089;28;19969;-66
2023/04/03 10:25:00;;;;;;;;;;;6.80;93.80;;;;;;5086868;28;19923;-66
2023/04/03 10:27:25;;;;;;;;;;;6.80;94.00;;;;;;5085448;28;19908;-66
2023/04/03 10:29:55;;;;;;;;;;;6.80;94.10;;;;;;5094728;28;20281;-66
2023/04/03 10:32:29;;;;;;;;;;;6.90;94.30;;;;;;5106683;28;20705;-66
2023/04/03 10:35:01;;;;;;;;;;;6.90;94.20;;;;;;5106898;28;19908;-66
2023/04/03 10:37:32;;;;;;;;;;;7.00;94.20;;;;;;5105046;28;19924;-65
2023/04/03 10:40:17;;;;;;;;;;;7.00;94.00;;;;;;5106507;28;20616;-65
2023/04/03 10:42:48;;;;;;;;;;;7.00;94.00;;;;;;5081259;28;19954;-66
2023/04/03 10:45:14;;;;;;;;;;;7.10;93.90;;;;;;5106880;28;19912;-66
2023/04/03 10:47:49;;;;;;;;;;;7.20;94.20;;;;;;5106890;28;19911;-66
2023/04/03 10:50:26;;;;;;;;;;;7.20;94.30;;;;;;5106597;28;20002;-66
2023/04/03 10:52:57;;;;;;;;;;;7.30;94.20;;;;;;5105231;28;20340;-66
2023/04/03 10:55:26;;;;;;;;;;;7.40;94.30;;;;;;5104150;28;20630;-66
2023/04/03 10:57:54;;;;;;;;;;;7.50;94.40;;;;;;5106190;28;19934;-66
2023/04/03 11:00:21;;;;;;;;;;;7.60;94.50;;;;;;5107305;28;19916;-66
2023/04/03 11:03:02;;;;;;;;;;;7.70;94.50;;;;;;5107262;28;19908;-66
2023/04/03 11:05:31;;;;;;;;;;;7.80;94.40;;;;;;5105249;28;19955;-66
2023/04/03 11:07:57;;;;;;;;;;;7.90;94.30;;;;;;5107448;28;19915;-66
2023/04/03 11:10:28;;;;;;;;;;;8.10;94.50;;;;;;5107264;28;19932;-66
2023/04/03 11:13:01;;;;;;;;;;;8.20;94.20;;;;;;5104295;28;19912;-66
2023/04/03 11:15:29;;;;;;;;;;;8.30;94.20;;;;;;5103134;28;19925;-66
2023/04/03 11:17:58;;;;;;;;;;;8.50;94.30;;;;;;5107931;28;19912;-66
2023/04/03 11:20:27;;;;;;;;;;;8.50;94.00;;;;;;5110956;28;20661;-66
2023/04/03 11:23:11;;;;;;;;;;;8.70;94.00;;;;;;5109911;28;20705;-67
2023/04/03 11:25:38;;;;;;;;;;;8.70;93.80;;;;;;5109981;28;20007;-66
2023/04/03 11:28:05;;;;;;;;;;;8.90;94.00;;;;;;5108096;28;19912;-67
2023/04/03 11:30:49;;;;;;;;;;;9.00;94.00;;;;;;5110774;28;20619;-66
2023/04/03 11:33:15;;;;;;;;;;;9.00;93.60;;;;;;5108876;28;20000;-66
2023/04/03 11:36:01;;;;;;;;;;;9.20;93.70;;;;;;5110166;28;19961;-66
2023/04/03 11:38:39;;;;;;;;;;;9.20;92.90;;;;;;5110430;28;19919;-66
2023/04/03 11:41:06;;;;;;;;;;;9.30;93.50;;;;;;5110044;28;19915;-66
2023/04/03 11:43:33;;;;;;;;;;;9.40;93.30;;;;;;5110650;28;19911;-66
2023/04/03 11:46:05;;;;;;;;;;;9.50;93.50;;;;;;5111071;28;19990;-66
2023/04/03 11:48:31;;;;;;;;;;;9.50;93.20;;;;;;5109820;28;19919;-66
2023/04/03 11:50:58;;;;;;;;;;;9.60;92.80;;;;;;5110494;28;20428;-66
2023/04/03 11:53:34;;;;;;;;;;;9.70;93.40;;;;;;5106546;28;19915;-66
2023/04/03 11:56:01;;;;;;;;;;;9.70;93.30;;;;;;5111012;28;20520;-66
2023/04/03 11:58:33;;;;;;;;;;;9.80;93.50;;;;;;5110138;28;19918;-66
2023/04/03 12:01:00;;;;;;;;;;;9.90;93.30;;;;;;5106746;28;19961;-66
2023/04/03 12:06:14;;;;;;;;;;;9.90;93.60;;;;;;5109665;28;20025;-66
2023/04/03 12:08:39;;;;;;;;;;;10.00;93.60;;;;;;5085320;28;19911;-66
2023/04/03 12:11:08;;;;;;;;;;;10.00;93.60;;;;;;5110021;28;19931;-66
2023/04/03 12:13:34;;;;;;;;;;;10.10;93.90;;;;;;5109499;28;19946;-66
2023/04/03 12:16:00;;;;;;;;;;;10.10;93.80;;;;;;5109689;28;19912;-66
2023/04/03 12:18:41;;;;;;;;;;;10.20;93.60;;;;;;5109606;28;20265;-66
2023/04/03 12:21:07;;;;;;;;;;;10.20;93.90;;;;;;5108288;28;19919;-66
2023/04/03 12:23:34;;;;;;;;;;;10.20;94.20;;;;;;5095078;28;19923;-66
2023/04/03 12:26:06;;;;;;;;;;;10.30;94.20;;;;;;5088959;28;19985;-66
2023/04/03 12:28:37;;;;;;;;;;;10.30;94.20;;;;;;5089080;28;19918;-66
2023/04/03 12:31:03;;;;;;;;;;;10.30;94.30;;;;;;5089485;28;19912;-66
2023/04/03 12:33:37;;;;;;;;;;;10.40;94.50;;;;;;5087282;28;19912;-66
2023/04/03 12:36:02;;;;;;;;;;;10.30;94.90;;;;;;5089098;28;20322;-66
2023/04/03 12:38:41;;;;;;;;;;;10.40;94.70;;;;;;5087462;28;20026;-66
2023/04/03 12:41:25;;;;;;;;;;;10.40;94.60;;;;;;5100452;28;19984;-67
2023/04/03 12:44:15;;;;;;;;;;;10.50;94.80;;;;;;5108788;28;19954;-66
2023/04/03 12:46:45;;;;;;;;;;;10.50;94.70;;;;;;5088770;28;20416;-67
2023/04/03 12:49:22;;;;;;;;;;;10.50;94.60;;;;;;5108710;28;20625;-66
2023/04/03 12:51:48;;;;;;;;;;;10.60;94.80;;;;;;5108651;28;19908;-66
2023/04/03 12:54:13;;;;;;;;;;;10.60;94.20;;;;;;5088989;28;19940;-66
2023/04/03 12:56:39;;;;;;;;;;;10.60;94.90;;;;;;5096130;28;20283;-66
2023/04/03 12:59:19;;;;;;;;;;;10.70;94.20;;;;;;5109348;28;19912;-67
2023/04/03 13:01:53;;;;;;;;;;;10.60;93.50;;;;;;5107861;28;20300;-66
2023/04/03 13:04:18;;;;;;;;;;;10.70;94.70;;;;;;5109452;28;20002;-66
2023/04/03 13:06:44;;;;;;;;;;;10.70;95.00;;;;;;5109506;28;20329;-66
2023/04/03 13:09:23;;;;;;;;;;;10.80;95.10;;;;;;5108853;28;19958;-66
2023/04/03 13:11:50;;;;;;;;;;;10.70;95.20;;;;;;5109125;28;20441;-66
2023/04/03 13:14:17;;;;;;;;;;;10.80;95.30;;;;;;5109426;28;19914;-66
2023/04/03 13:16:52;;;;;;;;;;;10.80;95.10;;;;;;5109358;28;19961;-66
2023/04/03 13:19:17;;;;;;;;;;;10.80;95.30;;;;;;5109028;28;20006;-66
2023/04/03 13:21:44;;;;;;;;;;;10.90;96.10;;;;;;5107552;28;20002;-67
2023/04/03 13:24:10;;;;;;;;;;;10.90;95.90;;;;;;5117241;27;20364;-66
2023/04/03 13:26:38;;;;;;;;;;;10.90;94.90;;;;;;5128451;27;20227;-66
2023/04/03 13:29:05;;;;;;;;;;;10.90;95.60;;;;;;5129750;27;19966;-66
2023/04/03 13:31:33;;;;;;;;;;;10.90;95.80;;;;;;5130215;27;20002;-66
2023/04/03 13:33:59;;;;;;;;;;;11.00;95.40;;;;;;5129193;27;19911;-67
2023/04/03 13:36:35;;;;;;;;;;;11.00;95.60;;;;;;5128120;27;19912;-66
2023/04/03 13:39:06;;;;;;;;;;;11.00;95.50;;;;;;5128967;27;19918;-66
2023/04/03 13:41:36;;;;;;;;;;;11.10;95.90;;;;;;5112330;27;19994;-66
2023/04/03 13:44:34;;;;;;;;;;;11.10;96.20;;;;;;5108456;28;20029;-66
2023/04/03 13:47:13;;;;;;;;;;;11.10;96.10;;;;;;5085064;28;19923;-66
2023/04/03 13:49:41;;;;;;;;;;;11.20;96.20;;;;;;5107309;28;19912;-66
2023/04/03 13:52:25;;;;;;;;;;;11.20;96.20;;;;;;5106584;28;19961;-66
2023/04/03 13:54:58;;;;;;;;;;;11.30;96.40;;;;;;5088299;28;19955;-66
2023/04/03 13:57:24;;;;;;;;;;;11.30;95.90;;;;;;5102071;28;19965;-66
2023/04/03 13:59:50;;;;;;;;;;;11.30;95.10;;;;;;5108634;28;19916;-66
2023/04/03 14:02:21;;;;;;;;;;;11.40;95.90;;;;;;5108234;28;20258;-67
2023/04/03 14:04:49;;;;;;;;;;;11.40;95.40;;;;;;5095966;28;19915;-67
2023/04/03 14:07:15;;;;;;;;;;;11.40;95.60;;;;;;5104074;28;20353;-67
2023/04/03 14:09:41;;;;;;;;;;;11.40;95.50;;;;;;5094822;27;19911;-67
2023/04/03 14:12:08;;;;;;;;;;;11.40;95.70;;;;;;5085213;28;19915;-67
2023/04/03 14:14:35;;;;;;;;;;;11.40;96.30;;;;;;5098527;27;20002;-67
2023/04/03 14:17:02;;;;;;;;;;;11.40;95.80;;;;;;5105159;28;19915;-68
2023/04/03 14:19:29;;;;;;;;;;;11.40;96.50;;;;;;5104453;28;19931;-67
2023/04/03 14:21:55;;;;;;;;;;;11.50;96.00;;;;;;5107229;28;20003;-67
2023/04/03 14:24:21;;;;;;;;;;;11.50;95.40;;;;;;5104457;28;20364;-67
2023/04/03 14:26:47;;;;;;;;;;;11.50;96.30;;;;;;5111010;27;19922;-67
2023/04/03 14:29:14;;;;;;;;;;;11.50;96.30;;;;;;5115145;28;19918;-67
2023/04/03 14:31:40;;;;;;;;;;;11.50;95.50;;;;;;5122677;27;19999;-68
2023/04/03 14:34:06;;;;;;;;;;;11.50;95.60;;;;;;5108575;28;19914;-68